GVSV

São Pedro Airport

São Pedro, Cape Verde
METAR GVSV 201600Z 05014KT 9999 FEW018 BKN100 29/20 Q1015 NOSIG
Observed Flight Rules
Aug-20 @ 16:00 UTC (25 minutes ago) Visual Flight Rules
Wind Visibility Clouds
50° at 14 knots 10,000+ meters
  • Few at 1,800' AGL
  • Broken at 10,000' AGL
Temperatures Readings
Current 29°C / 84°F
Dewpoint 20°C / 68°F
Humidity 58%
Altimeter 29.97" Hg
Pressure 1015 hPa
Elevation 20
METAR GVSV 201600Z 05014KT 9999 FEW018 BKN100 29/20 Q1015 NOSIG
Observed Flight Rules
Aug-20 @ 16:00 UTC
(25 minutes ago)
VFR
Wind Visibility
50° at 14 knots 10,000+ meters
Clouds
  • Few at 1,800' AGL
  • Broken at 10,000' AGL
Temperature Dewpoint
29°C / 84°F 20°C / 68°F
Humidity Altimeter Pressure
58% 29.97" Hg 1015 hPa